createdAt,value
2023-04-26T00:04:15.867Z,95569.00
2023-04-26T00:09:44.842Z,95560.00
2023-04-26T00:15:13.589Z,95553.00
2023-04-26T00:20:41.556Z,95550.00
2023-04-26T00:26:09.327Z,95549.00
2023-04-26T00:31:37.502Z,95553.00
2023-04-26T00:37:06.435Z,95553.00
2023-04-26T00:42:36.382Z,95566.00
2023-04-26T00:48:05.311Z,95557.00
2023-04-26T00:53:36.625Z,95553.00
2023-04-26T00:59:05.775Z,95554.00
2023-04-26T01:04:35.028Z,95548.00
2023-04-26T01:10:06.497Z,95559.00
2023-04-26T01:15:35.996Z,95559.00
2023-04-26T01:21:05.409Z,95559.00
2023-04-26T01:26:33.409Z,95564.00
2023-04-26T01:32:01.427Z,95564.00
2023-04-26T01:37:29.498Z,95563.00
2023-04-26T01:43:03.362Z,95565.00
2023-04-26T01:48:31.385Z,95571.00
2023-04-26T01:54:02.125Z,95571.00
2023-04-26T01:59:30.260Z,95569.00
2023-04-26T02:04:59.980Z,95585.00
2023-04-26T02:10:28.078Z,95583.00
2023-04-26T02:15:56.271Z,95584.00
2023-04-26T02:21:24.230Z,95581.00
2023-04-26T02:26:53.096Z,95580.00
2023-04-26T02:32:21.153Z,95564.00
2023-04-26T02:37:49.477Z,95566.00
2023-04-26T02:43:17.463Z,95567.00
2023-04-26T02:48:45.618Z,95571.00
2023-04-26T02:54:13.877Z,95556.00
2023-04-26T02:59:41.704Z,95572.00
2023-04-26T03:05:10.717Z,95570.00
2023-04-26T03:10:38.888Z,95577.00
2023-04-26T03:16:07.242Z,95576.00
2023-04-26T03:21:35.509Z,95569.00
2023-04-26T03:27:04.664Z,95574.00
2023-04-26T03:32:33.206Z,95587.00
2023-04-26T03:38:01.143Z,95582.00
2023-04-26T03:43:29.160Z,95586.00
2023-04-26T03:48:57.360Z,95575.00
2023-04-26T03:54:26.381Z,95581.00
2023-04-26T03:59:54.367Z,95579.00
2023-04-26T04:05:22.487Z,95585.00
2023-04-26T04:10:50.887Z,95601.00
2023-04-26T04:16:18.859Z,95594.00
2023-04-26T04:21:46.792Z,95588.00
2023-04-26T04:27:15.051Z,95594.00
2023-04-26T04:32:45.231Z,95600.00
2023-04-26T04:38:14.365Z,95605.00
2023-04-26T04:43:42.433Z,95612.00
2023-04-26T04:49:12.792Z,95627.00
2023-04-26T04:54:40.993Z,95616.00
2023-04-26T05:00:10.846Z,95623.00
2023-04-26T05:05:45.662Z,95633.00
2023-04-26T05:11:13.515Z,95639.00
2023-04-26T05:16:42.620Z,95641.00
2023-04-26T05:22:10.624Z,95639.00
2023-04-26T05:27:38.756Z,95648.00
2023-04-26T05:33:29.446Z,95653.00
2023-04-26T05:39:08.548Z,95657.00
2023-04-26T05:44:37.522Z,95655.00
2023-04-26T05:50:06.947Z,95663.00
2023-04-26T05:55:34.846Z,95661.00
2023-04-26T06:01:03.154Z,95662.00
2023-04-26T06:06:32.208Z,95663.00
2023-04-26T06:12:00.290Z,95673.00
2023-04-26T06:17:28.578Z,95678.00
2023-04-26T06:22:56.733Z,95688.00
2023-04-26T06:28:25.583Z,95687.00
2023-04-26T06:33:53.916Z,95678.00
2023-04-26T06:39:22.150Z,95687.00
2023-04-26T06:44:50.248Z,95688.00
2023-04-26T06:50:18.478Z,95689.00
2023-04-26T06:55:46.574Z,95687.00
2023-04-26T07:01:14.352Z,95701.00
2023-04-26T07:06:42.398Z,95693.00
2023-04-26T07:12:14.033Z,95706.00
2023-04-26T07:17:41.836Z,95697.00
2023-04-26T07:23:09.599Z,95699.00
2023-04-26T07:28:37.351Z,95697.00
2023-04-26T07:34:05.202Z,95686.00
2023-04-26T07:39:33.040Z,95693.00
2023-04-26T07:45:01.103Z,95689.00
2023-04-26T07:50:28.904Z,95693.00
2023-04-26T07:55:56.726Z,95690.00
2023-04-26T08:01:24.517Z,95688.00
2023-04-26T08:06:52.327Z,95692.00
2023-04-26T08:12:20.225Z,95697.00
2023-04-26T08:17:48.595Z,95692.00
2023-04-26T08:23:16.593Z,95695.00
2023-04-26T08:28:44.569Z,95692.00
2023-04-26T08:34:13.625Z,95690.00
2023-04-26T08:39:41.803Z,95686.00
2023-04-26T08:45:13.623Z,95691.00
2023-04-26T08:50:47.769Z,95692.00
2023-04-26T08:56:15.909Z,95691.00
2023-04-26T09:01:45.015Z,95693.00
2023-04-26T09:07:27.774Z,95689.00
2023-04-26T09:12:56.645Z,95689.00
2023-04-26T09:18:25.011Z,95699.00
2023-04-26T09:24:11.384Z,95688.00
2023-04-26T09:29:39.185Z,95685.00
2023-04-26T09:35:09.177Z,95694.00
2023-04-26T09:40:48.345Z,95695.00
2023-04-26T09:46:26.847Z,95680.00
2023-04-26T09:52:06.301Z,95680.00
2023-04-26T09:57:44.584Z,95687.00
2023-04-26T10:03:13.278Z,95685.00
2023-04-26T10:08:41.377Z,95672.00
2023-04-26T10:14:10.383Z,95684.00
2023-04-26T10:19:44.184Z,95668.00
2023-04-26T10:25:12.234Z,95663.00
2023-04-26T10:30:58.459Z,95665.00
2023-04-26T10:36:26.357Z,95651.00
2023-04-26T10:42:32.437Z,95654.00
2023-04-26T10:48:22.046Z,95653.00
2023-04-26T10:53:52.350Z,95641.00
2023-04-26T10:59:39.884Z,95636.00
2023-04-26T11:05:09.900Z,95639.00
2023-04-26T11:10:39.026Z,95615.00
2023-04-26T11:16:09.518Z,95605.00
2023-04-26T11:21:41.091Z,95608.00
2023-04-26T11:27:12.498Z,95612.00
2023-04-26T11:32:40.605Z,95609.00
2023-04-26T11:38:09.471Z,95605.00
2023-04-26T11:43:40.980Z,95600.00
2023-04-26T11:49:12.860Z,95605.00
2023-04-26T11:54:42.745Z,95606.00
2023-04-26T12:00:17.571Z,95624.00
2023-04-26T12:05:55.328Z,95613.00
2023-04-26T12:11:23.262Z,95613.00
2023-04-26T12:16:51.220Z,95620.00
2023-04-26T12:22:24.376Z,95611.00
2023-04-26T12:27:52.596Z,95606.00
2023-04-26T12:33:23.123Z,95608.00
2023-04-26T12:38:51.037Z,95604.00
2023-04-26T12:44:21.252Z,95616.00
2023-04-26T12:49:50.287Z,95603.00
2023-04-26T12:55:20.200Z,95609.00
2023-04-26T13:00:48.368Z,95596.00
2023-04-26T13:06:16.205Z,95593.00
2023-04-26T13:11:44.147Z,95568.00
2023-04-26T13:17:12.397Z,95580.00
2023-04-26T13:22:42.478Z,95580.00
2023-04-26T13:28:10.317Z,95589.00
2023-04-26T13:33:38.221Z,95577.00
2023-04-26T13:39:07.417Z,95587.00
2023-04-26T13:44:35.394Z,95573.00
2023-04-26T13:50:04.466Z,95566.00
2023-04-26T13:55:32.427Z,95562.00
2023-04-26T14:01:00.193Z,95557.00
2023-04-26T14:06:28.997Z,95556.00
2023-04-26T14:12:07.194Z,95551.00
2023-04-26T14:17:36.471Z,95559.00
2023-04-26T14:23:04.429Z,95554.00
2023-04-26T14:28:32.327Z,95560.00
2023-04-26T14:34:00.195Z,95566.00
2023-04-26T14:39:28.542Z,95558.00
2023-04-26T14:44:59.579Z,95557.00
2023-04-26T14:50:28.513Z,95560.00
2023-04-26T14:56:00.261Z,95552.00
2023-04-26T15:01:28.663Z,95547.00
2023-04-26T15:06:57.335Z,95543.00
2023-04-26T15:12:25.237Z,95556.00
2023-04-26T15:17:53.442Z,95548.00
2023-04-26T15:23:21.149Z,95556.00
2023-04-26T15:28:49.679Z,95544.00
2023-04-26T15:34:18.642Z,95548.00
2023-04-26T15:39:47.443Z,95549.00
2023-04-26T15:45:15.670Z,95549.00
2023-04-26T15:50:43.535Z,95546.00
2023-04-26T15:56:16.037Z,95547.00
2023-04-26T16:01:44.040Z,95538.00
2023-04-26T16:07:11.919Z,95546.00
2023-04-26T16:12:41.730Z,95547.00
2023-04-26T16:18:10.042Z,95547.00
2023-04-26T16:23:38.913Z,95552.00
2023-04-26T16:29:06.880Z,95538.00
2023-04-26T16:34:34.824Z,95548.00
2023-04-26T16:40:05.194Z,95560.00
2023-04-26T16:45:33.260Z,95555.00
2023-04-26T16:51:04.870Z,95552.00
2023-04-26T16:56:34.674Z,95557.00
2023-04-26T17:02:02.872Z,95553.00
2023-04-26T17:07:30.921Z,95564.00
2023-04-26T17:13:00.040Z,95569.00
2023-04-26T17:18:28.541Z,95576.00
2023-04-26T17:23:56.663Z,95575.00
2023-04-26T17:29:24.647Z,95582.00
2023-04-26T17:34:52.619Z,95588.00
2023-04-26T17:40:20.664Z,95584.00
2023-04-26T17:45:48.894Z,95590.00
2023-04-26T17:51:16.991Z,95599.00
2023-04-26T17:56:45.224Z,95605.00
2023-04-26T18:02:14.392Z,95605.00
2023-04-26T18:07:42.583Z,95610.00
2023-04-26T18:13:11.463Z,95619.00
2023-04-26T18:18:39.364Z,95617.00
2023-04-26T18:24:07.723Z,95616.00
2023-04-26T18:29:35.819Z,95632.00
2023-04-26T18:35:07.375Z,95630.00
2023-04-26T18:40:35.821Z,95625.00
2023-04-26T18:46:03.698Z,95639.00
2023-04-26T18:51:32.802Z,95647.00
2023-04-26T18:57:03.308Z,95654.00
2023-04-26T19:02:31.571Z,95669.00
2023-04-26T19:07:59.473Z,95665.00
2023-04-26T19:13:28.313Z,95664.00
2023-04-26T19:18:58.217Z,95667.00
2023-04-26T19:24:26.056Z,95656.00
2023-04-26T19:29:55.170Z,95667.00
2023-04-26T19:35:24.036Z,95662.00
2023-04-26T19:40:53.102Z,95668.00
2023-04-26T19:46:22.045Z,95681.00
2023-04-26T19:51:50.162Z,95678.00
2023-04-26T19:57:17.985Z,95687.00
2023-04-26T20:02:46.200Z,95683.00
2023-04-26T20:08:14.539Z,95680.00
2023-04-26T20:13:42.811Z,95680.00
2023-04-26T20:19:10.702Z,95684.00
2023-04-26T20:24:42.734Z,95677.00
2023-04-26T20:30:12.152Z,95677.00
2023-04-26T20:35:41.272Z,95669.00
2023-04-26T20:41:10.213Z,95678.00
2023-04-26T20:46:40.081Z,95690.00
2023-04-26T20:52:08.343Z,95682.00
2023-04-26T20:57:37.756Z,95701.00
2023-04-26T21:03:05.719Z,95700.00
2023-04-26T21:08:35.238Z,95702.00
2023-04-26T21:14:04.465Z,95704.00
2023-04-26T21:19:32.860Z,95698.00
2023-04-26T21:25:00.998Z,95696.00
2023-04-26T21:30:28.928Z,95698.00
2023-04-26T21:35:58.310Z,95699.00
2023-04-26T21:41:27.957Z,95687.00
2023-04-26T21:46:56.122Z,95689.00
2023-04-26T21:52:24.215Z,95687.00
2023-04-26T21:57:52.365Z,95683.00
2023-04-26T22:03:20.286Z,95696.00
2023-04-26T22:08:48.802Z,95707.00
2023-04-26T22:14:16.693Z,95699.00
2023-04-26T22:19:44.703Z,95695.00
2023-04-26T22:25:12.648Z,95699.00
2023-04-26T22:30:40.419Z,95705.00
2023-04-26T22:36:08.983Z,95707.00
2023-04-26T22:41:36.837Z,95703.00
2023-04-26T22:47:04.874Z,95703.00
2023-04-26T22:52:32.831Z,95697.00
2023-04-26T22:58:00.808Z,95702.00
2023-04-26T23:03:28.812Z,95708.00
2023-04-26T23:08:57.696Z,95705.00
2023-04-26T23:14:27.004Z,95714.00
2023-04-26T23:19:55.201Z,95709.00
2023-04-26T23:25:24.057Z,95707.00
2023-04-26T23:30:51.953Z,95707.00
2023-04-26T23:36:19.753Z,95702.00
2023-04-26T23:41:47.663Z,95702.00
2023-04-26T23:47:15.533Z,95698.00
2023-04-26T23:52:44.365Z,95691.00
2023-04-26T23:58:12.189Z,95693.00
